Urnieta, Spain
Current Conditions -  °F | °C
As of 9:30 PM on Tuesday 21 Oct 2014 (Local Time) from LESO Reporting Station
Broken Clouds Broken Clouds  
Wind Chill: 66°   Ceiling: 4500
Heat Index: 66°   Visibility: 6mi
Dew Point: 61°   Wind: 7mph
Humidity: 83%   Direction: 260°W
Pressure: 30.36"   Gusts: 18mph
Location:  43.25°N, 1.99°W
Report Text: LESO 211930Z 26006G16KT 190V340 9999 BKN045 19/16 Q1028
Loading
Personal Weather Stations






























Interactive Weather Map
Tropical Storm Tracking
New forecast layout! Learn more

10-Day Weather Forecast

Advertisements
Track Severe Weather on mobile